createdAt,value
2022-12-14T00:06:48.839Z,2.50
2022-12-14T00:14:54.110Z,2.10
2022-12-14T00:23:02.157Z,2.50
2022-12-14T00:31:07.905Z,2.50
2022-12-14T00:39:15.892Z,2.00
2022-12-14T00:47:21.181Z,1.10
2022-12-14T00:55:29.133Z,1.60
2022-12-14T01:03:34.905Z,2.20
2022-12-14T01:11:44.006Z,2.30
2022-12-14T01:19:49.385Z,2.60
2022-12-14T01:27:57.409Z,2.20
2022-12-14T01:36:07.722Z,2.40
2022-12-14T01:44:42.920Z,2.10
2022-12-14T01:52:52.953Z,2.60
2022-12-14T02:01:01.434Z,2.60
2022-12-14T02:09:12.387Z,2.70
2022-12-14T02:17:18.660Z,2.40
2022-12-14T02:26:06.627Z,2.30
2022-12-14T02:34:24.663Z,2.50
2022-12-14T02:42:41.544Z,2.70
2022-12-14T02:50:57.036Z,2.50
2022-12-14T02:59:03.585Z,2.50
2022-12-14T03:07:41.338Z,2.10
2022-12-14T03:15:55.542Z,2.30
2022-12-14T03:24:03.389Z,1.80
2022-12-14T03:32:15.312Z,2.40
2022-12-14T03:40:22.624Z,2.00
2022-12-14T03:48:38.112Z,2.40
2022-12-14T03:56:53.187Z,2.50
2022-12-14T04:05:06.894Z,2.90
2022-12-14T04:13:29.801Z,2.70
2022-12-14T04:21:43.220Z,2.90
2022-12-14T04:30:01.420Z,3.20
2022-12-14T04:38:13.336Z,3.30
2022-12-14T04:46:23.305Z,3.10
2022-12-14T04:54:37.720Z,3.40
2022-12-14T05:02:55.172Z,3.90
2022-12-14T05:11:48.086Z,4.30
2022-12-14T05:19:37.294Z,3.90
2022-12-14T05:27:45.169Z,3.80
2022-12-14T05:35:50.438Z,3.10
2022-12-14T05:43:58.406Z,2.90
2022-12-14T05:52:03.685Z,2.60
2022-12-14T06:00:12.986Z,2.60
2022-12-14T06:08:18.328Z,2.60
2022-12-14T06:16:28.438Z,2.60
2022-12-14T06:24:33.874Z,3.00
2022-12-14T06:32:42.709Z,2.80
2022-12-14T06:40:48.012Z,3.60
2022-12-14T06:48:57.311Z,4.10
2022-12-14T06:57:02.736Z,4.40
2022-12-14T07:05:11.052Z,4.50
2022-12-14T07:13:16.368Z,4.60
2022-12-14T07:21:25.455Z,4.90
2022-12-14T07:29:34.610Z,5.00
2022-12-14T07:37:42.945Z,5.20
2022-12-14T07:45:54.365Z,5.30
2022-12-14T07:54:04.357Z,4.80
2022-12-14T08:02:09.793Z,5.30
2022-12-14T08:10:21.870Z,5.30
2022-12-14T08:18:28.653Z,5.40
2022-12-14T08:26:36.909Z,5.50
2022-12-14T08:34:42.178Z,5.80
2022-12-14T08:42:57.442Z,5.90
2022-12-14T08:51:16.740Z,6.10
2022-12-14T08:59:59.749Z,5.60
2022-12-14T09:07:50.320Z,5.50
2022-12-14T09:16:07.883Z,5.50
2022-12-14T09:24:15.992Z,5.20
2022-12-14T09:32:29.007Z,4.20
2022-12-14T09:40:37.237Z,5.30
2022-12-14T09:48:45.641Z,5.90
2022-12-14T09:56:51.447Z,6.20
2022-12-14T10:05:18.351Z,5.70
2022-12-14T10:20:53.906Z,4.10
2022-12-14T10:29:07.969Z,5.70
2022-12-14T10:37:27.252Z,6.90
2022-12-14T10:45:40.707Z,7.40
2022-12-14T10:53:53.534Z,7.80
2022-12-14T11:02:07.852Z,9.20
2022-12-14T11:10:22.668Z,9.30
2022-12-14T11:18:33.960Z,9.20
2022-12-14T11:26:44.921Z,9.60
2022-12-14T11:34:59.108Z,9.00
2022-12-14T11:43:08.697Z,8.70
2022-12-14T11:51:16.146Z,8.80
2022-12-14T11:59:24.428Z,9.00
2022-12-14T12:07:35.618Z,8.30
2022-12-14T12:15:49.842Z,8.80
2022-12-14T12:24:02.060Z,8.80
2022-12-14T12:32:17.376Z,8.80
2022-12-14T12:40:27.196Z,8.90
2022-12-14T12:48:39.634Z,9.00
2022-12-14T12:56:49.001Z,8.60
2022-12-14T13:05:10.827Z,8.60
2022-12-14T13:13:32.170Z,8.40
2022-12-14T13:21:49.867Z,8.20
2022-12-14T13:30:09.310Z,8.20
2022-12-14T13:38:36.258Z,8.30
2022-12-14T13:46:45.832Z,8.20
2022-12-14T13:54:54.974Z,8.20
2022-12-14T14:03:01.147Z,8.00
2022-12-14T14:11:42.331Z,8.00
2022-12-14T14:19:52.259Z,7.80
2022-12-14T14:27:58.385Z,7.70
2022-12-14T14:36:23.392Z,7.60
2022-12-14T14:44:39.059Z,7.70
2022-12-14T14:53:29.229Z,7.50
2022-12-14T15:01:34.812Z,7.70
2022-12-14T15:09:47.515Z,7.50
2022-12-14T15:17:52.949Z,7.60
2022-12-14T15:26:09.166Z,7.20
2022-12-14T15:34:21.136Z,7.30
2022-12-14T15:42:29.576Z,7.30
2022-12-14T15:50:35.549Z,7.20
2022-12-14T15:58:46.431Z,7.10
2022-12-14T16:07:01.688Z,7.20
2022-12-14T16:15:22.212Z,7.10
2022-12-14T16:23:36.067Z,7.20
2022-12-14T16:31:48.136Z,7.20
2022-12-14T16:39:55.628Z,7.20
2022-12-14T16:48:17.270Z,7.30
2022-12-14T16:56:24.851Z,7.40
2022-12-14T17:04:40.306Z,6.90
2022-12-14T17:12:47.613Z,6.70
2022-12-14T17:20:55.730Z,7.00
2022-12-14T17:29:01.556Z,6.90
2022-12-14T17:37:14.321Z,7.00
2022-12-14T17:45:23.900Z,6.50
2022-12-14T17:53:34.485Z,6.80
2022-12-14T18:01:40.962Z,6.80
2022-12-14T18:09:50.518Z,6.90
2022-12-14T18:17:56.428Z,6.80
2022-12-14T18:26:05.595Z,7.00
2022-12-14T18:34:10.973Z,7.10
2022-12-14T18:42:22.818Z,7.10
2022-12-14T18:50:28.279Z,7.20
2022-12-14T18:58:36.397Z,6.60
2022-12-14T19:06:46.126Z,6.80
2022-12-14T19:14:54.445Z,7.00
2022-12-14T19:23:00.545Z,7.10
2022-12-14T19:31:08.715Z,7.10
2022-12-14T19:39:14.550Z,7.30
2022-12-14T19:47:23.596Z,7.40
2022-12-14T19:55:29.604Z,7.20
2022-12-14T20:03:38.012Z,7.00
2022-12-14T20:11:43.708Z,7.00
2022-12-14T20:19:52.329Z,7.10
2022-12-14T20:27:57.739Z,6.80
2022-12-14T20:36:07.972Z,7.00
2022-12-14T20:44:15.373Z,7.10
2022-12-14T20:52:23.288Z,6.70
2022-12-14T21:00:30.466Z,6.80
2022-12-14T21:08:54.885Z,6.70
2022-12-14T21:17:01.731Z,6.30
2022-12-14T21:25:10.904Z,5.90
2022-12-14T21:33:16.229Z,6.30
2022-12-14T21:41:37.415Z,6.60
2022-12-14T21:49:44.757Z,6.60
2022-12-14T21:58:05.237Z,6.90
2022-12-14T22:06:12.761Z,6.90
2022-12-14T22:14:22.617Z,6.90
2022-12-14T22:22:30.616Z,6.80
2022-12-14T22:30:38.531Z,6.80
2022-12-14T22:38:44.305Z,6.90
2022-12-14T22:46:52.944Z,6.80
2022-12-14T22:54:59.031Z,6.90
2022-12-14T23:03:07.390Z,7.00
2022-12-14T23:11:25.155Z,7.20
2022-12-14T23:19:45.402Z,7.30
2022-12-14T23:28:03.034Z,7.20
2022-12-14T23:36:24.473Z,7.50
2022-12-14T23:44:42.148Z,7.70
2022-12-14T23:53:02.521Z,7.40
